sensor_id;sensor_type;location;lat;lon;timestamp;P1;durP1;ratioP1;P2;durP2;ratioP2
13718;SDS011;6931;51.100;17.068;2024-01-16T00:01:57;7.63;;;5.28;;
13718;SDS011;6931;51.100;17.068;2024-01-16T00:04:23;6.15;;;4.53;;
13718;SDS011;6931;51.100;17.068;2024-01-16T00:06:52;8.00;;;5.57;;
13718;SDS011;6931;51.100;17.068;2024-01-16T00:09:19;7.78;;;5.03;;
13718;SDS011;6931;51.100;17.068;2024-01-16T00:11:46;7.57;;;5.75;;
13718;SDS011;6931;51.100;17.068;2024-01-16T00:14:13;8.52;;;5.47;;
13718;SDS011;6931;51.100;17.068;2024-01-16T00:16:42;6.95;;;4.65;;
13718;SDS011;6931;51.100;17.068;2024-01-16T00:19:10;7.43;;;4.95;;
13718;SDS011;6931;51.100;17.068;2024-01-16T00:21:39;8.05;;;5.35;;
13718;SDS011;6931;51.100;17.068;2024-01-16T00:24:09;7.93;;;5.07;;
13718;SDS011;6931;51.100;17.068;2024-01-16T00:26:35;7.30;;;5.10;;
13718;SDS011;6931;51.100;17.068;2024-01-16T00:29:02;4.72;;;3.30;;
13718;SDS011;6931;51.100;17.068;2024-01-16T00:31:29;3.28;;;2.25;;
13718;SDS011;6931;51.100;17.068;2024-01-16T00:33:55;3.67;;;1.70;;
13718;SDS011;6931;51.100;17.068;2024-01-16T00:36:22;3.38;;;1.77;;
13718;SDS011;6931;51.100;17.068;2024-01-16T00:38:48;3.45;;;1.63;;
13718;SDS011;6931;51.100;17.068;2024-01-16T00:41:15;2.95;;;1.90;;
13718;SDS011;6931;51.100;17.068;2024-01-16T00:43:43;4.00;;;2.30;;
13718;SDS011;6931;51.100;17.068;2024-01-16T00:46:10;9.43;;;3.90;;
13718;SDS011;6931;51.100;17.068;2024-01-16T00:48:36;6.85;;;2.70;;
13718;SDS011;6931;51.100;17.068;2024-01-16T00:51:03;5.13;;;2.83;;
13718;SDS011;6931;51.100;17.068;2024-01-16T00:53:30;8.25;;;3.95;;
13718;SDS011;6931;51.100;17.068;2024-01-16T00:55:57;6.32;;;3.13;;
13718;SDS011;6931;51.100;17.068;2024-01-16T00:58:24;3.92;;;2.17;;
13718;SDS011;6931;51.100;17.068;2024-01-16T01:00:51;5.90;;;1.85;;
13718;SDS011;6931;51.100;17.068;2024-01-16T01:03:17;4.97;;;2.08;;
13718;SDS011;6931;51.100;17.068;2024-01-16T01:05:45;7.57;;;2.40;;
13718;SDS011;6931;51.100;17.068;2024-01-16T01:08:12;6.35;;;2.30;;
13718;SDS011;6931;51.100;17.068;2024-01-16T01:10:38;2.15;;;1.70;;
13718;SDS011;6931;51.100;17.068;2024-01-16T01:13:05;6.40;;;1.85;;
13718;SDS011;6931;51.100;17.068;2024-01-16T01:15:32;5.65;;;2.25;;
13718;SDS011;6931;51.100;17.068;2024-01-16T01:17:58;3.65;;;1.75;;
13718;SDS011;6931;51.100;17.068;2024-01-16T01:20:25;4.57;;;2.22;;
13718;SDS011;6931;51.100;17.068;2024-01-16T01:22:52;4.13;;;2.05;;
13718;SDS011;6931;51.100;17.068;2024-01-16T01:25:18;5.05;;;2.20;;
13718;SDS011;6931;51.100;17.068;2024-01-16T01:27:45;3.15;;;2.05;;
13718;SDS011;6931;51.100;17.068;2024-01-16T01:30:12;7.45;;;2.22;;
13718;SDS011;6931;51.100;17.068;2024-01-16T01:32:39;7.63;;;2.35;;
13718;SDS011;6931;51.100;17.068;2024-01-16T01:35:06;3.50;;;2.15;;
13718;SDS011;6931;51.100;17.068;2024-01-16T01:37:33;4.32;;;2.10;;
13718;SDS011;6931;51.100;17.068;2024-01-16T01:40:00;8.23;;;2.35;;
13718;SDS011;6931;51.100;17.068;2024-01-16T01:42:26;4.95;;;2.28;;
13718;SDS011;6931;51.100;17.068;2024-01-16T01:44:53;3.80;;;2.45;;
13718;SDS011;6931;51.100;17.068;2024-01-16T01:47:19;5.38;;;2.38;;
13718;SDS011;6931;51.100;17.068;2024-01-16T01:49:46;4.13;;;2.60;;
13718;SDS011;6931;51.100;17.068;2024-01-16T01:52:14;6.10;;;2.38;;
13718;SDS011;6931;51.100;17.068;2024-01-16T01:54:40;4.88;;;2.60;;
13718;SDS011;6931;51.100;17.068;2024-01-16T01:57:07;4.20;;;2.53;;
13718;SDS011;6931;51.100;17.068;2024-01-16T01:59:35;4.75;;;2.40;;
13718;SDS011;6931;51.100;17.068;2024-01-16T02:02:02;5.85;;;2.50;;
13718;SDS011;6931;51.100;17.068;2024-01-16T02:04:31;6.60;;;2.80;;
13718;SDS011;6931;51.100;17.068;2024-01-16T02:06:58;6.78;;;2.58;;
13718;SDS011;6931;51.100;17.068;2024-01-16T02:09:25;5.22;;;2.50;;
13718;SDS011;6931;51.100;17.068;2024-01-16T02:11:51;4.57;;;2.13;;
13718;SDS011;6931;51.100;17.068;2024-01-16T02:14:18;4.00;;;2.50;;
13718;SDS011;6931;51.100;17.068;2024-01-16T02:16:45;4.25;;;2.50;;
13718;SDS011;6931;51.100;17.068;2024-01-16T02:19:11;5.38;;;2.58;;
13718;SDS011;6931;51.100;17.068;2024-01-16T02:21:39;5.18;;;2.65;;
13718;SDS011;6931;51.100;17.068;2024-01-16T02:24:07;3.85;;;2.72;;
13718;SDS011;6931;51.100;17.068;2024-01-16T02:26:37;8.75;;;2.28;;
13718;SDS011;6931;51.100;17.068;2024-01-16T02:29:04;6.13;;;2.65;;
13718;SDS011;6931;51.100;17.068;2024-01-16T02:31:31;9.10;;;2.55;;
13718;SDS011;6931;51.100;17.068;2024-01-16T02:33:58;5.63;;;2.28;;
13718;SDS011;6931;51.100;17.068;2024-01-16T02:36:26;4.13;;;2.10;;
13718;SDS011;6931;51.100;17.068;2024-01-16T02:38:53;3.70;;;2.50;;
13718;SDS011;6931;51.100;17.068;2024-01-16T02:41:20;6.53;;;3.40;;
13718;SDS011;6931;51.100;17.068;2024-01-16T02:43:47;7.53;;;3.05;;
13718;SDS011;6931;51.100;17.068;2024-01-16T02:46:13;8.57;;;3.22;;
13718;SDS011;6931;51.100;17.068;2024-01-16T02:48:41;5.80;;;3.28;;
13718;SDS011;6931;51.100;17.068;2024-01-16T02:51:10;4.85;;;2.50;;
13718;SDS011;6931;51.100;17.068;2024-01-16T02:53:37;9.80;;;3.05;;
13718;SDS011;6931;51.100;17.068;2024-01-16T02:56:04;7.35;;;3.20;;
13718;SDS011;6931;51.100;17.068;2024-01-16T02:58:33;7.15;;;3.55;;
13718;SDS011;6931;51.100;17.068;2024-01-16T03:00:59;6.05;;;3.38;;
13718;SDS011;6931;51.100;17.068;2024-01-16T03:03:26;10.45;;;3.33;;
13718;SDS011;6931;51.100;17.068;2024-01-16T03:05:53;8.35;;;3.42;;
13718;SDS011;6931;51.100;17.068;2024-01-16T03:08:22;4.60;;;2.25;;
13718;SDS011;6931;51.100;17.068;2024-01-16T03:10:49;7.35;;;3.15;;
13718;SDS011;6931;51.100;17.068;2024-01-16T03:13:15;9.68;;;3.45;;
13718;SDS011;6931;51.100;17.068;2024-01-16T03:15:42;8.23;;;3.25;;
13718;SDS011;6931;51.100;17.068;2024-01-16T03:18:08;8.35;;;3.72;;
13718;SDS011;6931;51.100;17.068;2024-01-16T03:20:36;6.53;;;2.80;;
13718;SDS011;6931;51.100;17.068;2024-01-16T03:23:02;4.53;;;2.58;;
13718;SDS011;6931;51.100;17.068;2024-01-16T03:25:30;5.32;;;2.70;;
13718;SDS011;6931;51.100;17.068;2024-01-16T03:27:57;6.30;;;2.85;;
13718;SDS011;6931;51.100;17.068;2024-01-16T03:30:24;4.93;;;2.85;;
13718;SDS011;6931;51.100;17.068;2024-01-16T03:32:50;8.15;;;3.05;;
13718;SDS011;6931;51.100;17.068;2024-01-16T03:35:17;3.85;;;2.38;;
13718;SDS011;6931;51.100;17.068;2024-01-16T03:37:44;4.32;;;2.72;;
13718;SDS011;6931;51.100;17.068;2024-01-16T03:40:10;3.72;;;2.45;;
13718;SDS011;6931;51.100;17.068;2024-01-16T03:42:38;5.75;;;2.60;;
13718;SDS011;6931;51.100;17.068;2024-01-16T03:45:05;4.50;;;2.25;;
13718;SDS011;6931;51.100;17.068;2024-01-16T03:47:32;2.33;;;1.73;;
13718;SDS011;6931;51.100;17.068;2024-01-16T03:49:59;5.07;;;2.20;;
13718;SDS011;6931;51.100;17.068;2024-01-16T03:52:26;3.55;;;2.40;;
13718;SDS011;6931;51.100;17.068;2024-01-16T03:54:52;6.90;;;2.25;;
13718;SDS011;6931;51.100;17.068;2024-01-16T03:57:19;3.55;;;2.47;;
13718;SDS011;6931;51.100;17.068;2024-01-16T03:59:45;2.83;;;1.70;;
13718;SDS011;6931;51.100;17.068;2024-01-16T04:02:12;2.78;;;1.67;;
13718;SDS011;6931;51.100;17.068;2024-01-16T04:04:39;3.40;;;1.67;;
13718;SDS011;6931;51.100;17.068;2024-01-16T04:07:06;3.83;;;2.05;;
13718;SDS011;6931;51.100;17.068;2024-01-16T04:09:33;4.85;;;2.20;;
13718;SDS011;6931;51.100;17.068;2024-01-16T04:11:59;3.05;;;1.92;;
13718;SDS011;6931;51.100;17.068;2024-01-16T04:14:26;4.05;;;2.25;;
13718;SDS011;6931;51.100;17.068;2024-01-16T04:16:53;4.05;;;2.17;;
13718;SDS011;6931;51.100;17.068;2024-01-16T04:19:19;3.53;;;1.70;;
13718;SDS011;6931;51.100;17.068;2024-01-16T04:21:46;4.30;;;2.00;;
13718;SDS011;6931;51.100;17.068;2024-01-16T04:24:13;3.40;;;1.77;;
13718;SDS011;6931;51.100;17.068;2024-01-16T04:26:39;2.78;;;1.77;;
13718;SDS011;6931;51.100;17.068;2024-01-16T04:29:06;3.05;;;1.65;;
13718;SDS011;6931;51.100;17.068;2024-01-16T04:31:33;5.10;;;1.80;;
13718;SDS011;6931;51.100;17.068;2024-01-16T04:34:06;2.97;;;1.73;;
13718;SDS011;6931;51.100;17.068;2024-01-16T04:36:33;3.25;;;1.98;;
13718;SDS011;6931;51.100;17.068;2024-01-16T04:38:59;3.53;;;1.88;;
13718;SDS011;6931;51.100;17.068;2024-01-16T04:41:26;2.88;;;1.65;;
13718;SDS011;6931;51.100;17.068;2024-01-16T04:43:53;3.88;;;2.00;;
13718;SDS011;6931;51.100;17.068;2024-01-16T04:46:19;4.07;;;2.00;;
13718;SDS011;6931;51.100;17.068;2024-01-16T04:48:46;4.15;;;2.15;;
13718;SDS011;6931;51.100;17.068;2024-01-16T04:51:13;4.90;;;1.63;;
13718;SDS011;6931;51.100;17.068;2024-01-16T04:53:41;3.00;;;1.90;;
13718;SDS011;6931;51.100;17.068;2024-01-16T04:56:07;2.97;;;1.70;;
13718;SDS011;6931;51.100;17.068;2024-01-16T04:58:34;4.63;;;1.70;;
13718;SDS011;6931;51.100;17.068;2024-01-16T05:01:00;3.15;;;1.80;;
13718;SDS011;6931;51.100;17.068;2024-01-16T05:03:27;3.78;;;2.08;;
13718;SDS011;6931;51.100;17.068;2024-01-16T05:05:54;4.47;;;2.20;;
13718;SDS011;6931;51.100;17.068;2024-01-16T05:08:22;2.70;;;2.10;;
13718;SDS011;6931;51.100;17.068;2024-01-16T05:10:49;3.35;;;2.20;;
13718;SDS011;6931;51.100;17.068;2024-01-16T05:13:15;3.45;;;1.75;;
13718;SDS011;6931;51.100;17.068;2024-01-16T05:15:42;5.70;;;2.45;;
13718;SDS011;6931;51.100;17.068;2024-01-16T05:18:09;5.13;;;2.50;;
13718;SDS011;6931;51.100;17.068;2024-01-16T05:20:35;3.60;;;2.17;;
13718;SDS011;6931;51.100;17.068;2024-01-16T05:23:03;4.72;;;2.20;;
13718;SDS011;6931;51.100;17.068;2024-01-16T05:25:30;3.10;;;2.08;;
13718;SDS011;6931;51.100;17.068;2024-01-16T05:27:56;5.35;;;2.42;;
13718;SDS011;6931;51.100;17.068;2024-01-16T05:30:23;4.05;;;2.33;;
13718;SDS011;6931;51.100;17.068;2024-01-16T05:32:49;4.78;;;2.15;;
13718;SDS011;6931;51.100;17.068;2024-01-16T05:35:17;4.50;;;2.33;;
13718;SDS011;6931;51.100;17.068;2024-01-16T05:37:44;6.10;;;2.22;;
13718;SDS011;6931;51.100;17.068;2024-01-16T05:40:10;4.18;;;2.67;;
13718;SDS011;6931;51.100;17.068;2024-01-16T05:42:37;4.43;;;2.22;;
13718;SDS011;6931;51.100;17.068;2024-01-16T05:45:04;6.00;;;2.60;;
13718;SDS011;6931;51.100;17.068;2024-01-16T05:47:31;4.40;;;2.45;;
13718;SDS011;6931;51.100;17.068;2024-01-16T05:49:58;5.03;;;2.60;;
13718;SDS011;6931;51.100;17.068;2024-01-16T05:52:25;6.25;;;2.63;;
13718;SDS011;6931;51.100;17.068;2024-01-16T05:54:52;5.55;;;2.70;;
13718;SDS011;6931;51.100;17.068;2024-01-16T05:57:19;4.47;;;2.60;;
13718;SDS011;6931;51.100;17.068;2024-01-16T05:59:47;5.18;;;3.10;;
13718;SDS011;6931;51.100;17.068;2024-01-16T06:02:13;7.22;;;3.03;;
13718;SDS011;6931;51.100;17.068;2024-01-16T06:04:40;4.95;;;3.40;;
13718;SDS011;6931;51.100;17.068;2024-01-16T06:07:07;8.07;;;3.45;;
13718;SDS011;6931;51.100;17.068;2024-01-16T06:09:37;5.88;;;3.50;;
13718;SDS011;6931;51.100;17.068;2024-01-16T06:12:06;5.07;;;3.35;;
13718;SDS011;6931;51.100;17.068;2024-01-16T06:14:33;6.60;;;3.78;;
13718;SDS011;6931;51.100;17.068;2024-01-16T06:17:00;4.47;;;2.97;;
13718;SDS011;6931;51.100;17.068;2024-01-16T06:19:27;4.00;;;2.13;;
13718;SDS011;6931;51.100;17.068;2024-01-16T06:21:54;3.22;;;1.90;;
13718;SDS011;6931;51.100;17.068;2024-01-16T06:24:20;2.88;;;1.83;;
13718;SDS011;6931;51.100;17.068;2024-01-16T06:26:47;2.03;;;1.60;;
13718;SDS011;6931;51.100;17.068;2024-01-16T06:29:14;2.88;;;1.77;;
13718;SDS011;6931;51.100;17.068;2024-01-16T06:31:53;3.22;;;1.80;;
13718;SDS011;6931;51.100;17.068;2024-01-16T06:34:20;4.05;;;1.90;;
13718;SDS011;6931;51.100;17.068;2024-01-16T06:36:47;2.90;;;2.00;;
13718;SDS011;6931;51.100;17.068;2024-01-16T06:39:13;5.20;;;2.20;;
13718;SDS011;6931;51.100;17.068;2024-01-16T06:41:40;5.15;;;2.10;;
13718;SDS011;6931;51.100;17.068;2024-01-16T06:44:07;4.68;;;2.50;;
13718;SDS011;6931;51.100;17.068;2024-01-16T06:46:34;2.90;;;2.08;;
13718;SDS011;6931;51.100;17.068;2024-01-16T06:49:01;3.03;;;2.22;;
13718;SDS011;6931;51.100;17.068;2024-01-16T06:51:28;3.28;;;2.15;;
13718;SDS011;6931;51.100;17.068;2024-01-16T06:53:55;5.35;;;2.75;;
13718;SDS011;6931;51.100;17.068;2024-01-16T06:56:21;3.28;;;2.58;;
13718;SDS011;6931;51.100;17.068;2024-01-16T06:58:48;5.90;;;2.90;;
13718;SDS011;6931;51.100;17.068;2024-01-16T07:01:15;3.65;;;2.60;;
13718;SDS011;6931;51.100;17.068;2024-01-16T07:03:41;5.57;;;3.00;;
13718;SDS011;6931;51.100;17.068;2024-01-16T07:06:08;4.60;;;2.80;;
13718;SDS011;6931;51.100;17.068;2024-01-16T07:08:35;5.55;;;2.45;;
13718;SDS011;6931;51.100;17.068;2024-01-16T07:11:02;4.03;;;2.50;;
13718;SDS011;6931;51.100;17.068;2024-01-16T07:13:29;5.15;;;2.70;;
13718;SDS011;6931;51.100;17.068;2024-01-16T07:15:55;3.55;;;2.50;;
13718;SDS011;6931;51.100;17.068;2024-01-16T07:18:22;4.05;;;2.63;;
13718;SDS011;6931;51.100;17.068;2024-01-16T07:20:49;4.25;;;2.67;;
13718;SDS011;6931;51.100;17.068;2024-01-16T07:23:15;3.85;;;2.60;;
13718;SDS011;6931;51.100;17.068;2024-01-16T07:25:42;4.50;;;3.10;;
13718;SDS011;6931;51.100;17.068;2024-01-16T07:28:08;6.82;;;3.67;;
13718;SDS011;6931;51.100;17.068;2024-01-16T07:30:35;6.88;;;3.80;;
13718;SDS011;6931;51.100;17.068;2024-01-16T07:33:03;5.13;;;2.92;;
13718;SDS011;6931;51.100;17.068;2024-01-16T07:35:30;6.28;;;2.90;;
13718;SDS011;6931;51.100;17.068;2024-01-16T07:37:57;5.25;;;2.53;;
13718;SDS011;6931;51.100;17.068;2024-01-16T07:40:24;5.15;;;2.45;;
13718;SDS011;6931;51.100;17.068;2024-01-16T07:42:52;5.30;;;2.50;;
13718;SDS011;6931;51.100;17.068;2024-01-16T07:45:18;5.75;;;2.33;;
13718;SDS011;6931;51.100;17.068;2024-01-16T07:47:45;7.88;;;3.17;;
13718;SDS011;6931;51.100;17.068;2024-01-16T07:50:12;19.40;;;15.15;;
13718;SDS011;6931;51.100;17.068;2024-01-16T07:52:38;3.13;;;2.50;;
13718;SDS011;6931;51.100;17.068;2024-01-16T07:55:05;6.05;;;2.67;;
13718;SDS011;6931;51.100;17.068;2024-01-16T07:57:32;4.95;;;2.55;;
13718;SDS011;6931;51.100;17.068;2024-01-16T07:59:59;4.47;;;2.63;;
13718;SDS011;6931;51.100;17.068;2024-01-16T08:02:32;6.00;;;2.67;;
13718;SDS011;6931;51.100;17.068;2024-01-16T08:05:00;7.13;;;3.00;;
13718;SDS011;6931;51.100;17.068;2024-01-16T08:07:27;6.20;;;2.72;;
13718;SDS011;6931;51.100;17.068;2024-01-16T08:09:53;5.40;;;2.75;;
13718;SDS011;6931;51.100;17.068;2024-01-16T08:12:20;4.80;;;2.65;;
13718;SDS011;6931;51.100;17.068;2024-01-16T08:14:47;4.85;;;3.20;;
13718;SDS011;6931;51.100;17.068;2024-01-16T08:17:13;12.63;;;3.03;;
13718;SDS011;6931;51.100;17.068;2024-01-16T08:19:40;5.75;;;3.80;;
13718;SDS011;6931;51.100;17.068;2024-01-16T08:22:07;5.05;;;3.50;;
13718;SDS011;6931;51.100;17.068;2024-01-16T08:24:34;4.30;;;2.40;;
13718;SDS011;6931;51.100;17.068;2024-01-16T08:27:01;4.40;;;2.50;;
13718;SDS011;6931;51.100;17.068;2024-01-16T08:29:29;5.40;;;3.15;;
13718;SDS011;6931;51.100;17.068;2024-01-16T08:31:55;4.63;;;3.28;;
13718;SDS011;6931;51.100;17.068;2024-01-16T08:34:22;6.65;;;2.97;;
13718;SDS011;6931;51.100;17.068;2024-01-16T19:35:30;27.33;;;14.13;;
13718;SDS011;6931;51.100;17.068;2024-01-16T19:37:57;24.63;;;13.95;;
13718;SDS011;6931;51.100;17.068;2024-01-16T19:40:23;27.45;;;12.88;;
13718;SDS011;6931;51.100;17.068;2024-01-16T19:42:50;23.15;;;12.23;;
13718;SDS011;6931;51.100;17.068;2024-01-16T19:45:17;24.77;;;14.23;;
13718;SDS011;6931;51.100;17.068;2024-01-16T19:47:44;26.02;;;14.20;;
13718;SDS011;6931;51.100;17.068;2024-01-16T19:50:11;29.70;;;13.35;;
13718;SDS011;6931;51.100;17.068;2024-01-16T19:52:49;28.05;;;14.32;;
13718;SDS011;6931;51.100;17.068;2024-01-16T19:55:16;31.13;;;14.20;;
13718;SDS011;6931;51.100;17.068;2024-01-16T19:57:45;27.05;;;14.32;;
13718;SDS011;6931;51.100;17.068;2024-01-16T20:00:12;27.55;;;13.77;;
13718;SDS011;6931;51.100;17.068;2024-01-16T20:02:39;28.50;;;14.35;;
13718;SDS011;6931;51.100;17.068;2024-01-16T20:05:05;28.35;;;14.30;;
13718;SDS011;6931;51.100;17.068;2024-01-16T20:07:32;28.48;;;13.90;;
13718;SDS011;6931;51.100;17.068;2024-01-16T20:09:59;27.50;;;13.95;;
13718;SDS011;6931;51.100;17.068;2024-01-16T20:12:25;26.58;;;13.60;;
13718;SDS011;6931;51.100;17.068;2024-01-16T20:15:06;26.75;;;13.02;;
13718;SDS011;6931;51.100;17.068;2024-01-16T20:17:34;28.63;;;14.02;;
13718;SDS011;6931;51.100;17.068;2024-01-16T20:20:01;26.13;;;13.25;;
13718;SDS011;6931;51.100;17.068;2024-01-16T20:22:31;29.42;;;16.05;;
13718;SDS011;6931;51.100;17.068;2024-01-16T20:24:59;36.30;;;18.00;;
13718;SDS011;6931;51.100;17.068;2024-01-16T20:27:27;31.77;;;16.10;;
13718;SDS011;6931;51.100;17.068;2024-01-16T20:29:53;32.60;;;18.98;;
13718;SDS011;6931;51.100;17.068;2024-01-16T20:32:20;28.80;;;14.30;;
13718;SDS011;6931;51.100;17.068;2024-01-16T20:34:47;27.98;;;14.55;;
13718;SDS011;6931;51.100;17.068;2024-01-16T20:37:14;26.35;;;14.32;;
13718;SDS011;6931;51.100;17.068;2024-01-16T20:39:41;29.50;;;14.57;;
13718;SDS011;6931;51.100;17.068;2024-01-16T20:42:08;30.58;;;14.88;;
13718;SDS011;6931;51.100;17.068;2024-01-16T20:44:34;35.25;;;16.27;;
13718;SDS011;6931;51.100;17.068;2024-01-16T20:47:01;28.08;;;14.30;;
13718;SDS011;6931;51.100;17.068;2024-01-16T20:49:28;30.85;;;15.30;;
13718;SDS011;6931;51.100;17.068;2024-01-16T20:51:55;34.20;;;16.23;;
13718;SDS011;6931;51.100;17.068;2024-01-16T20:54:23;33.22;;;15.95;;
13718;SDS011;6931;51.100;17.068;2024-01-16T20:56:50;32.28;;;16.10;;
13718;SDS011;6931;51.100;17.068;2024-01-16T20:59:17;29.58;;;15.45;;
13718;SDS011;6931;51.100;17.068;2024-01-16T21:01:43;32.42;;;15.85;;
13718;SDS011;6931;51.100;17.068;2024-01-16T21:04:10;32.10;;;14.70;;
13718;SDS011;6931;51.100;17.068;2024-01-16T21:06:36;25.77;;;13.90;;
13718;SDS011;6931;51.100;17.068;2024-01-16T21:09:04;27.17;;;14.10;;
13718;SDS011;6931;51.100;17.068;2024-01-16T21:11:30;31.10;;;18.50;;
13718;SDS011;6931;51.100;17.068;2024-01-16T21:13:57;21.40;;;12.20;;
13718;SDS011;6931;51.100;17.068;2024-01-16T21:16:24;24.48;;;12.48;;
13718;SDS011;6931;51.100;17.068;2024-01-16T21:18:50;23.02;;;11.95;;
13718;SDS011;6931;51.100;17.068;2024-01-16T21:21:17;22.10;;;11.82;;
13718;SDS011;6931;51.100;17.068;2024-01-16T21:23:44;26.98;;;12.73;;
13718;SDS011;6931;51.100;17.068;2024-01-16T21:26:11;24.20;;;12.10;;
13718;SDS011;6931;51.100;17.068;2024-01-16T21:28:37;26.15;;;11.80;;
13718;SDS011;6931;51.100;17.068;2024-01-16T21:31:04;21.83;;;12.13;;
13718;SDS011;6931;51.100;17.068;2024-01-16T21:33:31;19.77;;;11.15;;
13718;SDS011;6931;51.100;17.068;2024-01-16T21:35:58;20.98;;;11.38;;
13718;SDS011;6931;51.100;17.068;2024-01-16T21:38:25;24.38;;;11.88;;
13718;SDS011;6931;51.100;17.068;2024-01-16T21:40:56;23.60;;;11.10;;
13718;SDS011;6931;51.100;17.068;2024-01-16T21:43:23;22.52;;;11.48;;
13718;SDS011;6931;51.100;17.068;2024-01-16T21:45:49;22.65;;;11.95;;
13718;SDS011;6931;51.100;17.068;2024-01-16T21:48:16;25.45;;;12.73;;
13718;SDS011;6931;51.100;17.068;2024-01-16T21:50:43;26.60;;;12.80;;
13718;SDS011;6931;51.100;17.068;2024-01-16T21:53:10;27.23;;;13.20;;
13718;SDS011;6931;51.100;17.068;2024-01-16T21:55:36;27.55;;;13.48;;
13718;SDS011;6931;51.100;17.068;2024-01-16T21:58:03;28.15;;;14.07;;
13718;SDS011;6931;51.100;17.068;2024-01-16T22:00:29;31.15;;;16.52;;
13718;SDS011;6931;51.100;17.068;2024-01-16T22:02:56;26.75;;;14.07;;
13718;SDS011;6931;51.100;17.068;2024-01-16T22:05:24;24.33;;;13.32;;
13718;SDS011;6931;51.100;17.068;2024-01-16T22:07:51;30.40;;;14.90;;
13718;SDS011;6931;51.100;17.068;2024-01-16T22:10:18;23.60;;;13.07;;
13718;SDS011;6931;51.100;17.068;2024-01-16T22:12:44;28.25;;;13.18;;
13718;SDS011;6931;51.100;17.068;2024-01-16T22:15:11;28.15;;;12.80;;
13718;SDS011;6931;51.100;17.068;2024-01-16T22:17:38;22.20;;;11.25;;
13718;SDS011;6931;51.100;17.068;2024-01-16T22:20:05;23.50;;;11.75;;
13718;SDS011;6931;51.100;17.068;2024-01-16T22:22:32;21.50;;;11.35;;
13718;SDS011;6931;51.100;17.068;2024-01-16T22:24:58;23.80;;;10.77;;
13718;SDS011;6931;51.100;17.068;2024-01-16T22:27:25;18.27;;;9.45;;
13718;SDS011;6931;51.100;17.068;2024-01-16T22:29:52;19.55;;;10.52;;
13718;SDS011;6931;51.100;17.068;2024-01-16T22:32:19;22.05;;;10.93;;
13718;SDS011;6931;51.100;17.068;2024-01-16T22:34:48;21.60;;;9.45;;
13718;SDS011;6931;51.100;17.068;2024-01-16T22:37:14;19.40;;;9.05;;
13718;SDS011;6931;51.100;17.068;2024-01-16T22:39:41;18.95;;;9.25;;
13718;SDS011;6931;51.100;17.068;2024-01-16T22:42:07;16.25;;;8.70;;
13718;SDS011;6931;51.100;17.068;2024-01-16T22:44:36;19.20;;;9.40;;
13718;SDS011;6931;51.100;17.068;2024-01-16T22:47:04;16.58;;;8.95;;
13718;SDS011;6931;51.100;17.068;2024-01-16T22:49:32;14.13;;;8.90;;
13718;SDS011;6931;51.100;17.068;2024-01-16T22:52:01;16.98;;;10.07;;
13718;SDS011;6931;51.100;17.068;2024-01-16T22:54:28;20.85;;;11.40;;
13718;SDS011;6931;51.100;17.068;2024-01-16T22:56:54;18.75;;;10.32;;
13718;SDS011;6931;51.100;17.068;2024-01-16T22:59:21;20.67;;;10.35;;
13718;SDS011;6931;51.100;17.068;2024-01-16T23:01:47;21.10;;;11.07;;
13718;SDS011;6931;51.100;17.068;2024-01-16T23:04:14;19.88;;;10.63;;
13718;SDS011;6931;51.100;17.068;2024-01-16T23:06:40;22.52;;;13.95;;
13718;SDS011;6931;51.100;17.068;2024-01-16T23:09:07;32.47;;;18.70;;
13718;SDS011;6931;51.100;17.068;2024-01-16T23:11:35;26.27;;;15.23;;
13718;SDS011;6931;51.100;17.068;2024-01-16T23:14:02;22.05;;;12.73;;
13718;SDS011;6931;51.100;17.068;2024-01-16T23:16:28;20.73;;;11.30;;
13718;SDS011;6931;51.100;17.068;2024-01-16T23:18:55;24.00;;;12.20;;
13718;SDS011;6931;51.100;17.068;2024-01-16T23:21:22;18.00;;;9.90;;
13718;SDS011;6931;51.100;17.068;2024-01-16T23:23:50;21.45;;;10.88;;
13718;SDS011;6931;51.100;17.068;2024-01-16T23:26:20;19.95;;;10.25;;
13718;SDS011;6931;51.100;17.068;2024-01-16T23:28:48;17.42;;;10.25;;
13718;SDS011;6931;51.100;17.068;2024-01-16T23:31:15;17.70;;;9.52;;
13718;SDS011;6931;51.100;17.068;2024-01-16T23:33:42;20.77;;;11.27;;
13718;SDS011;6931;51.100;17.068;2024-01-16T23:36:09;18.10;;;11.13;;
13718;SDS011;6931;51.100;17.068;2024-01-16T23:38:36;22.83;;;10.63;;
13718;SDS011;6931;51.100;17.068;2024-01-16T23:41:07;18.38;;;10.00;;
13718;SDS011;6931;51.100;17.068;2024-01-16T23:43:36;22.23;;;10.07;;
13718;SDS011;6931;51.100;17.068;2024-01-16T23:46:03;16.95;;;9.63;;
13718;SDS011;6931;51.100;17.068;2024-01-16T23:48:32;21.25;;;11.13;;
13718;SDS011;6931;51.100;17.068;2024-01-16T23:51:02;17.35;;;10.07;;
13718;SDS011;6931;51.100;17.068;2024-01-16T23:53:29;22.15;;;10.93;;
13718;SDS011;6931;51.100;17.068;2024-01-16T23:55:56;19.15;;;9.63;;
13718;SDS011;6931;51.100;17.068;2024-01-16T23:58:22;18.73;;;10.48;;
